createdAt,value
2022-08-03T00:01:19.576Z,19.53
2022-08-03T00:03:46.042Z,19.50
2022-08-03T00:06:12.839Z,19.49
2022-08-03T00:08:40.317Z,19.49
2022-08-03T00:11:06.745Z,19.48
2022-08-03T00:13:33.091Z,19.49
2022-08-03T00:15:59.422Z,19.49
2022-08-03T00:18:26.453Z,19.48
2022-08-03T00:20:52.957Z,19.47
2022-08-03T00:23:19.432Z,19.46
2022-08-03T00:25:45.770Z,19.46
2022-08-03T00:28:12.098Z,19.46
2022-08-03T00:30:38.384Z,19.46
2022-08-03T00:33:08.377Z,19.46
2022-08-03T00:35:51.068Z,19.44
2022-08-03T00:38:17.614Z,19.43
2022-08-03T00:40:44.129Z,19.41
2022-08-03T00:43:10.485Z,19.38
2022-08-03T00:45:36.775Z,19.36
2022-08-03T00:48:05.289Z,19.33
2022-08-03T00:50:31.620Z,19.32
2022-08-03T00:52:58.000Z,19.29
2022-08-03T00:55:24.344Z,19.26
2022-08-03T00:57:50.671Z,19.25
2022-08-03T01:00:16.995Z,19.22
2022-08-03T01:02:43.442Z,19.21
2022-08-03T01:05:09.679Z,19.21
2022-08-03T01:07:36.132Z,19.23
2022-08-03T01:10:02.601Z,19.24
2022-08-03T01:12:28.924Z,19.24
2022-08-03T01:14:55.230Z,19.25
2022-08-03T01:17:21.564Z,19.24
2022-08-03T01:19:47.794Z,19.26
2022-08-03T01:22:14.544Z,19.25
2022-08-03T01:24:41.010Z,19.24
2022-08-03T01:27:07.318Z,19.24
2022-08-03T01:29:33.631Z,19.25
2022-08-03T01:32:53.660Z,19.27
2022-08-03T01:34:46.137Z,19.26
2022-08-03T01:37:12.475Z,19.26
2022-08-03T01:39:38.780Z,19.25
2022-08-03T01:42:05.109Z,19.26
2022-08-03T01:44:34.002Z,19.26
2022-08-03T01:47:00.317Z,19.25
2022-08-03T01:49:26.825Z,19.25
2022-08-03T01:52:03.550Z,19.25
2022-08-03T01:54:31.669Z,19.26
2022-08-03T01:56:57.918Z,19.26
2022-08-03T01:59:24.234Z,19.27
2022-08-03T02:02:15.355Z,19.26
2022-08-03T02:04:37.097Z,19.28
2022-08-03T02:07:03.647Z,19.27
2022-08-03T02:09:30.026Z,19.29
2022-08-03T02:11:56.562Z,19.29
2022-08-03T02:14:22.904Z,19.29
2022-08-03T02:16:49.272Z,19.31
2022-08-03T02:19:15.722Z,19.32
2022-08-03T02:21:55.836Z,19.32
2022-08-03T02:24:26.964Z,19.33
2022-08-03T02:26:53.245Z,19.34
2022-08-03T02:29:19.653Z,19.34
2022-08-03T02:31:46.241Z,19.36
2022-08-03T02:34:12.532Z,19.36
2022-08-03T02:36:38.870Z,19.37
2022-08-03T02:39:05.178Z,19.35
2022-08-03T02:41:31.615Z,19.35
2022-08-03T02:44:07.107Z,19.36
2022-08-03T02:46:33.880Z,19.37
2022-08-03T02:49:00.389Z,19.37
2022-08-03T02:51:46.752Z,19.38
2022-08-03T02:54:13.079Z,19.39
2022-08-03T02:56:39.517Z,19.40
2022-08-03T02:59:05.835Z,19.41
2022-08-03T03:01:32.165Z,19.43
2022-08-03T03:03:58.509Z,19.41
2022-08-03T03:06:24.827Z,19.42
2022-08-03T03:08:59.615Z,19.44
2022-08-03T03:11:26.290Z,19.43
2022-08-03T03:13:52.622Z,19.45
2022-08-03T03:16:19.081Z,19.47
2022-08-03T03:18:45.416Z,19.46
2022-08-03T03:21:11.767Z,19.46
2022-08-03T03:23:38.072Z,19.44
2022-08-03T03:26:04.416Z,19.45
2022-08-03T03:28:31.238Z,19.44
2022-08-03T03:30:57.585Z,19.43
2022-08-03T03:33:23.885Z,19.39
2022-08-03T03:35:51.370Z,19.36
2022-08-03T03:38:17.697Z,19.36
2022-08-03T03:40:44.048Z,19.36
2022-08-03T03:43:10.361Z,19.35
2022-08-03T03:45:36.875Z,19.32
2022-08-03T03:48:03.213Z,19.27
2022-08-03T03:50:29.566Z,19.25
2022-08-03T03:52:56.005Z,19.22
2022-08-03T03:55:22.476Z,19.21
2022-08-03T03:57:48.753Z,19.21
2022-08-03T04:00:15.310Z,19.18
2022-08-03T04:02:41.642Z,19.15
2022-08-03T04:05:08.139Z,19.14
2022-08-03T04:07:34.358Z,19.13
2022-08-03T04:10:01.016Z,19.12
2022-08-03T04:12:49.904Z,19.11
2022-08-03T04:15:17.104Z,19.10
2022-08-03T04:17:43.486Z,19.10
2022-08-03T04:20:09.924Z,19.08
2022-08-03T04:22:36.203Z,19.07
2022-08-03T04:25:02.758Z,19.07
2022-08-03T04:27:29.046Z,19.10
2022-08-03T04:29:55.424Z,19.11
2022-08-03T04:32:21.757Z,19.12
2022-08-03T04:34:48.003Z,19.11
2022-08-03T04:37:14.251Z,19.11
2022-08-03T04:39:40.571Z,19.12
2022-08-03T04:42:08.088Z,19.13
2022-08-03T04:44:35.155Z,19.14
2022-08-03T04:47:01.453Z,19.18
2022-08-03T04:49:27.840Z,19.19
2022-08-03T04:51:54.137Z,19.20
2022-08-03T04:54:20.612Z,19.24
2022-08-03T04:56:46.927Z,19.27
2022-08-03T04:59:13.244Z,19.29
2022-08-03T05:01:39.641Z,19.32
2022-08-03T05:04:06.038Z,19.34
2022-08-03T05:06:32.513Z,19.37
2022-08-03T05:08:58.860Z,19.42
2022-08-03T05:11:25.430Z,19.44
2022-08-03T05:13:51.764Z,19.48
2022-08-03T05:16:18.039Z,19.53
2022-08-03T05:18:44.316Z,19.58
2022-08-03T05:21:10.598Z,19.63
2022-08-03T05:23:36.962Z,19.67
2022-08-03T05:26:03.406Z,19.71
2022-08-03T05:28:29.726Z,19.76
2022-08-03T05:30:56.043Z,19.81
2022-08-03T05:33:22.331Z,19.86
2022-08-03T05:36:01.063Z,19.90
2022-08-03T05:38:34.136Z,19.96
2022-08-03T05:41:20.990Z,20.01
2022-08-03T05:43:47.950Z,20.06
2022-08-03T05:46:14.399Z,20.14
2022-08-03T05:48:40.785Z,20.20
2022-08-03T05:51:07.122Z,20.26
2022-08-03T05:53:33.508Z,20.31
2022-08-03T05:56:03.605Z,20.38
2022-08-03T05:58:41.987Z,20.45
2022-08-03T06:01:08.447Z,20.51
2022-08-03T06:03:34.880Z,20.57
2022-08-03T06:06:01.333Z,20.80
2022-08-03T06:08:27.638Z,20.92
2022-08-03T06:10:53.947Z,21.00
2022-08-03T06:13:20.584Z,21.11
2022-08-03T06:15:47.149Z,21.27
2022-08-03T06:18:13.615Z,21.38
2022-08-03T06:20:40.056Z,21.47
2022-08-03T06:23:06.340Z,21.56
2022-08-03T06:25:33.783Z,21.62
2022-08-03T06:28:00.242Z,21.69
2022-08-03T06:30:26.621Z,21.74
2022-08-03T06:32:52.974Z,21.80
2022-08-03T06:35:19.239Z,21.92
2022-08-03T06:37:45.545Z,22.04
2022-08-03T06:40:13.902Z,22.15
2022-08-03T06:42:40.402Z,22.26
2022-08-03T06:45:06.707Z,22.37
2022-08-03T06:47:32.968Z,22.55
2022-08-03T06:50:12.989Z,22.75
2022-08-03T06:52:43.771Z,22.92
2022-08-03T06:55:10.550Z,23.00
2022-08-03T06:57:37.198Z,23.06
2022-08-03T07:00:09.554Z,23.11
2022-08-03T07:02:38.048Z,23.24
2022-08-03T07:05:05.409Z,23.35
2022-08-03T07:07:31.716Z,23.59
2022-08-03T07:09:58.459Z,23.71
2022-08-03T07:12:25.527Z,23.78
2022-08-03T07:14:53.110Z,23.82
2022-08-03T07:17:20.910Z,23.84
2022-08-03T07:19:47.260Z,23.84
2022-08-03T07:22:13.548Z,23.93
2022-08-03T07:24:40.173Z,24.00
2022-08-03T07:27:06.488Z,24.07
2022-08-03T07:29:34.731Z,24.18
2022-08-03T07:32:01.094Z,24.24
2022-08-03T07:34:27.392Z,24.24
2022-08-03T07:36:53.724Z,24.25
2022-08-03T07:39:20.054Z,24.27
2022-08-03T07:41:46.478Z,24.31
2022-08-03T07:44:12.837Z,24.35
2022-08-03T07:46:39.072Z,24.41
2022-08-03T07:49:05.477Z,24.51
2022-08-03T07:51:31.841Z,24.60
2022-08-03T07:53:58.271Z,24.67
2022-08-03T07:56:24.629Z,24.71
2022-08-03T07:58:50.975Z,24.76
2022-08-03T08:01:17.490Z,24.84
2022-08-03T08:03:53.210Z,24.96
2022-08-03T08:06:19.898Z,25.21
2022-08-03T08:08:46.411Z,25.32
2022-08-03T08:11:12.764Z,25.57
2022-08-03T08:13:39.278Z,25.74
2022-08-03T08:16:05.647Z,25.76
2022-08-03T08:18:32.029Z,25.74
2022-08-03T08:20:58.350Z,25.72
2022-08-03T08:23:42.182Z,25.69
2022-08-03T08:26:10.054Z,25.89
2022-08-03T08:28:36.334Z,25.99
2022-08-03T08:31:02.653Z,26.09
2022-08-03T08:33:42.190Z,26.23
2022-08-03T08:36:15.780Z,26.27
2022-08-03T08:38:42.133Z,26.24
2022-08-03T08:41:08.441Z,26.25
2022-08-03T08:43:34.782Z,26.24
2022-08-03T08:46:01.082Z,26.23
2022-08-03T08:48:27.336Z,26.32
2022-08-03T08:50:53.674Z,26.41
2022-08-03T08:53:26.757Z,26.57
2022-08-03T08:55:58.642Z,26.62
2022-08-03T08:58:26.159Z,26.63
2022-08-03T09:00:52.750Z,26.61
2022-08-03T09:03:22.664Z,26.58
2022-08-03T09:05:56.947Z,26.60
2022-08-03T09:08:23.253Z,26.62
2022-08-03T09:10:49.514Z,26.77
2022-08-03T09:13:15.845Z,26.95
2022-08-03T09:15:42.131Z,27.04
2022-08-03T09:18:26.146Z,27.13
2022-08-03T09:20:56.817Z,27.11
2022-08-03T09:23:51.703Z,27.13
2022-08-03T09:26:09.481Z,27.24
2022-08-03T09:29:00.737Z,27.32
2022-08-03T09:31:21.919Z,27.25
2022-08-03T09:33:48.370Z,27.20
2022-08-03T09:36:14.911Z,27.18
2022-08-03T09:38:41.267Z,27.25
2022-08-03T09:41:07.711Z,27.45
2022-08-03T09:43:34.033Z,27.54
2022-08-03T09:46:00.287Z,27.66
2022-08-03T09:48:26.609Z,27.66
2022-08-03T09:50:58.822Z,27.69
2022-08-03T09:53:38.910Z,27.75
2022-08-03T09:56:35.605Z,27.80
2022-08-03T09:59:02.901Z,27.91
2022-08-03T10:01:29.211Z,28.06
2022-08-03T10:04:04.011Z,28.17
2022-08-03T10:06:30.810Z,28.20
2022-08-03T10:08:57.083Z,28.20
2022-08-03T10:11:23.395Z,28.19
2022-08-03T10:13:49.773Z,28.21
2022-08-03T10:16:22.183Z,28.39
2022-08-03T10:18:51.412Z,28.49
2022-08-03T10:21:17.656Z,28.62
2022-08-03T10:23:44.109Z,28.65
2022-08-03T10:26:10.380Z,28.74
2022-08-03T10:28:40.238Z,28.81
2022-08-03T10:31:09.233Z,28.79
2022-08-03T10:33:49.472Z,28.77
2022-08-03T10:36:18.541Z,28.83
2022-08-03T10:38:44.795Z,28.86
2022-08-03T10:41:11.010Z,28.81
2022-08-03T10:43:37.312Z,28.84
2022-08-03T10:46:03.565Z,29.05
2022-08-03T10:48:29.829Z,29.12
2022-08-03T10:50:56.056Z,29.12
2022-08-03T10:53:22.312Z,29.20
2022-08-03T10:55:48.550Z,29.27
2022-08-03T10:58:14.986Z,29.24
2022-08-03T11:00:57.025Z,29.20
2022-08-03T11:03:23.380Z,29.18
2022-08-03T11:05:49.664Z,29.10
2022-08-03T11:08:15.957Z,29.07
2022-08-03T11:10:42.213Z,29.12
2022-08-03T11:13:08.434Z,29.21
2022-08-03T11:15:34.694Z,29.41
2022-08-03T11:18:00.965Z,29.50
2022-08-03T11:20:27.715Z,29.58
2022-08-03T11:22:53.944Z,29.72
2022-08-03T11:25:54.249Z,29.85
2022-08-03T11:28:06.465Z,29.83
2022-08-03T11:30:33.057Z,29.85
2022-08-03T11:32:59.334Z,29.74
2022-08-03T11:35:25.580Z,29.57
2022-08-03T11:38:03.083Z,29.42
2022-08-03T11:40:31.662Z,29.44
2022-08-03T11:42:57.910Z,29.47
2022-08-03T11:45:24.185Z,29.56
2022-08-03T11:47:51.471Z,29.62
2022-08-03T11:50:17.911Z,29.60
2022-08-03T11:52:44.152Z,29.55
2022-08-03T11:55:10.390Z,29.54
2022-08-03T11:59:01.746Z,29.64
2022-08-03T12:00:22.918Z,29.89
2022-08-03T12:02:49.200Z,30.00
2022-08-03T12:05:15.550Z,30.11
2022-08-03T12:08:03.032Z,30.15
2022-08-03T12:10:28.255Z,30.23
2022-08-03T12:12:55.161Z,30.30
2022-08-03T12:15:21.410Z,30.40
2022-08-03T12:17:47.685Z,30.46
2022-08-03T12:20:13.935Z,30.46
2022-08-03T12:22:40.178Z,30.43
2022-08-03T12:25:06.423Z,30.50
2022-08-03T12:27:32.628Z,30.55
2022-08-03T12:29:59.255Z,30.54
2022-08-03T12:32:25.638Z,30.64
2022-08-03T12:34:51.905Z,30.68
2022-08-03T12:37:22.518Z,30.83
2022-08-03T12:40:01.722Z,30.93
2022-08-03T12:42:31.836Z,31.02
2022-08-03T12:44:58.155Z,31.15
2022-08-03T12:47:24.452Z,31.27
2022-08-03T12:49:50.881Z,31.37
2022-08-03T12:52:17.216Z,31.42
2022-08-03T12:54:43.548Z,31.50
2022-08-03T12:57:09.924Z,31.57
2022-08-03T12:59:40.421Z,31.73
2022-08-03T13:02:09.370Z,31.78
2022-08-03T13:04:36.378Z,31.86
2022-08-03T13:07:03.404Z,32.00
2022-08-03T13:09:29.904Z,32.13
2022-08-03T13:12:02.211Z,32.21
2022-08-03T13:14:28.955Z,32.32
2022-08-03T13:16:55.348Z,32.39
2022-08-03T13:19:21.715Z,32.62
2022-08-03T13:22:01.303Z,32.95
2022-08-03T13:24:31.664Z,33.18
2022-08-03T13:26:58.269Z,33.43
2022-08-03T13:29:24.903Z,33.76
2022-08-03T13:31:51.408Z,34.08
2022-08-03T13:34:22.281Z,34.26
2022-08-03T13:39:57.933Z,34.24
2022-08-03T13:42:22.414Z,34.36
2022-08-03T13:44:48.973Z,34.59
2022-08-03T13:47:15.255Z,34.47
2022-08-03T13:49:41.494Z,34.56
2022-08-03T13:52:07.724Z,34.64
2022-08-03T13:54:33.959Z,34.59
2022-08-03T13:58:05.097Z,34.43
2022-08-03T13:59:46.429Z,34.41
2022-08-03T14:02:12.722Z,34.35
2022-08-03T14:04:39.014Z,34.09
2022-08-03T14:07:05.241Z,34.04
2022-08-03T14:09:31.538Z,34.23
2022-08-03T14:12:06.833Z,34.46
2022-08-03T14:14:34.779Z,34.60
2022-08-03T14:17:01.178Z,34.87
2022-08-03T14:19:28.749Z,35.18
2022-08-03T14:22:01.789Z,35.48
2022-08-03T14:24:33.219Z,35.70
2022-08-03T14:27:07.163Z,35.51
2022-08-03T14:29:35.378Z,35.41
2022-08-03T14:32:11.994Z,35.18
2022-08-03T14:34:39.132Z,35.12
2022-08-03T14:37:05.400Z,35.11
2022-08-03T14:39:59.854Z,35.01
2022-08-03T14:42:18.108Z,34.95
2022-08-03T14:44:44.366Z,34.88
2022-08-03T14:47:10.612Z,34.93
2022-08-03T14:50:30.779Z,35.19
2022-08-03T14:52:23.177Z,35.42
2022-08-03T14:54:49.441Z,35.44
2022-08-03T14:57:15.677Z,35.21
2022-08-03T14:59:55.936Z,35.28
2022-08-03T15:02:24.078Z,35.57
2022-08-03T15:04:50.833Z,35.48
2022-08-03T15:07:17.202Z,35.37
2022-08-03T15:09:43.521Z,35.53
2022-08-03T15:12:09.753Z,35.76
2022-08-03T15:14:36.007Z,35.90
2022-08-03T15:17:04.194Z,35.86
2022-08-03T15:20:00.929Z,35.76
2022-08-03T15:22:16.625Z,35.88
2022-08-03T15:24:46.887Z,35.90
2022-08-03T15:27:13.084Z,35.75
2022-08-03T15:30:04.916Z,35.38
2022-08-03T15:32:25.568Z,35.38
2022-08-03T15:34:52.647Z,35.33
2022-08-03T15:37:18.878Z,35.39
2022-08-03T15:39:59.125Z,35.62
2022-08-03T15:42:26.477Z,35.93
2022-08-03T15:44:53.755Z,36.20
2022-08-03T15:47:20.954Z,36.26
2022-08-03T15:49:47.507Z,36.32
2022-08-03T15:52:13.753Z,36.06
2022-08-03T15:54:40.189Z,35.71
2022-08-03T15:57:06.548Z,35.48
2022-08-03T15:59:32.824Z,35.41
2022-08-03T16:01:59.108Z,35.45
2022-08-03T16:04:25.378Z,35.58
2022-08-03T16:06:51.629Z,35.54
2022-08-03T16:09:23.775Z,35.48
2022-08-03T16:12:04.073Z,35.16
2022-08-03T16:14:34.719Z,34.85
2022-08-03T16:17:06.842Z,34.52
2022-08-03T16:19:33.472Z,34.40
2022-08-03T16:21:59.950Z,34.48
2022-08-03T16:24:28.058Z,34.70
2022-08-03T16:26:54.530Z,34.99
2022-08-03T16:29:22.688Z,35.14
2022-08-03T16:31:51.326Z,35.11
2022-08-03T16:34:17.850Z,35.27
2022-08-03T16:36:45.362Z,35.48
2022-08-03T16:39:11.684Z,35.62
2022-08-03T16:41:53.622Z,35.77
2022-08-03T16:44:24.228Z,35.90
2022-08-03T16:46:53.373Z,35.98
2022-08-03T16:49:54.781Z,35.88
2022-08-03T16:52:07.121Z,35.79
2022-08-03T16:54:33.544Z,35.73
2022-08-03T16:57:01.083Z,35.66
2022-08-03T16:59:36.357Z,35.65
2022-08-03T17:02:06.688Z,35.76
2022-08-03T17:04:36.297Z,35.86
2022-08-03T17:07:06.762Z,35.88
2022-08-03T17:09:38.717Z,35.88
2022-08-03T17:12:05.277Z,35.98
2022-08-03T17:14:33.470Z,36.02
2022-08-03T17:16:59.736Z,35.91
2022-08-03T17:19:27.792Z,35.85
2022-08-03T17:21:55.456Z,35.81
2022-08-03T17:24:21.772Z,35.79
2022-08-03T17:26:51.739Z,35.70
2022-08-03T17:29:18.325Z,35.61
2022-08-03T17:31:44.613Z,35.32
2022-08-03T17:34:15.797Z,34.97
2022-08-03T17:37:03.412Z,34.52
2022-08-03T17:39:55.815Z,34.28
2022-08-03T17:42:30.405Z,33.98
2022-08-03T17:44:57.884Z,33.58
2022-08-03T17:47:40.976Z,33.41
2022-08-03T17:50:24.855Z,33.24
2022-08-03T17:52:52.271Z,33.22
2022-08-03T17:55:55.979Z,33.24
2022-08-03T17:58:07.357Z,33.25
2022-08-03T18:00:33.630Z,33.22
2022-08-03T18:03:00.865Z,33.19
2022-08-03T18:06:11.860Z,33.13
2022-08-03T18:08:15.736Z,33.03
2022-08-03T18:10:49.781Z,32.91
2022-08-03T18:13:16.397Z,32.78
2022-08-03T18:15:42.645Z,32.67
2022-08-03T18:18:10.851Z,32.52
2022-08-03T18:20:41.739Z,32.32
2022-08-03T18:23:08.735Z,32.11
2022-08-03T18:25:45.227Z,31.87
2022-08-03T18:28:23.962Z,31.68
2022-08-03T18:30:53.936Z,31.53
2022-08-03T18:34:19.087Z,31.40
2022-08-03T18:36:07.533Z,31.22
2022-08-03T18:38:35.426Z,31.09
2022-08-03T18:41:01.826Z,30.98
2022-08-03T18:43:47.567Z,30.87
2022-08-03T18:46:14.326Z,30.75
2022-08-03T18:48:40.577Z,30.64
2022-08-03T18:51:12.352Z,30.54
2022-08-03T18:54:04.075Z,30.41
2022-08-03T18:56:32.623Z,30.28
2022-08-03T18:59:02.245Z,30.15
2022-08-03T19:01:58.350Z,30.04
2022-08-03T19:04:15.255Z,29.90
2022-08-03T19:06:43.262Z,29.80
2022-08-03T19:09:10.389Z,29.70
2022-08-03T19:12:11.001Z,29.63
2022-08-03T19:14:22.889Z,29.55
2022-08-03T19:16:55.084Z,29.48
2022-08-03T19:19:21.299Z,29.40
2022-08-03T19:21:49.231Z,29.23
2022-08-03T19:24:15.749Z,28.91
2022-08-03T19:26:42.102Z,28.65
2022-08-03T19:29:11.372Z,28.49
2022-08-03T19:31:41.695Z,28.41
2022-08-03T19:34:25.564Z,28.33
2022-08-03T19:36:51.863Z,28.22
2022-08-03T19:39:18.194Z,28.12
2022-08-03T19:41:44.941Z,27.99
2022-08-03T19:44:19.803Z,27.89
2022-08-03T19:46:46.571Z,27.79
2022-08-03T19:49:15.006Z,27.69
2022-08-03T19:52:02.966Z,27.57
2022-08-03T19:54:32.320Z,27.52
2022-08-03T19:56:58.691Z,27.46
2022-08-03T19:59:26.421Z,27.38
2022-08-03T20:01:53.068Z,27.28
2022-08-03T20:04:21.272Z,27.19
2022-08-03T20:06:47.718Z,27.09
2022-08-03T20:09:16.366Z,27.04
2022-08-03T20:11:44.954Z,27.00
2022-08-03T20:14:11.611Z,26.96
2022-08-03T20:16:39.607Z,26.90
2022-08-03T20:19:14.369Z,26.83
2022-08-03T20:21:40.722Z,26.77
2022-08-03T20:24:23.311Z,26.74
2022-08-03T20:26:51.790Z,26.67
2022-08-03T20:29:19.651Z,26.63
2022-08-03T20:32:05.913Z,26.58
2022-08-03T20:34:32.714Z,26.53
2022-08-03T20:36:58.918Z,26.49
2022-08-03T20:39:26.261Z,26.43
2022-08-03T20:41:53.718Z,26.38
2022-08-03T20:44:25.715Z,26.32
2022-08-03T20:47:00.306Z,26.30
2022-08-03T20:49:27.079Z,26.22
2022-08-03T20:51:53.697Z,26.16
2022-08-03T20:54:29.705Z,26.12
2022-08-03T20:56:57.588Z,26.07
2022-08-03T20:59:24.238Z,26.02
2022-08-03T21:01:50.476Z,25.96
2022-08-03T21:04:20.865Z,25.92
2022-08-03T21:06:53.165Z,25.89
2022-08-03T21:09:19.883Z,25.86
2022-08-03T21:11:46.440Z,25.82
2022-08-03T21:14:12.757Z,25.76
2022-08-03T21:16:38.982Z,25.70
2022-08-03T21:19:05.249Z,25.65
2022-08-03T21:21:31.504Z,25.62
2022-08-03T21:23:57.752Z,25.57
2022-08-03T21:26:24.002Z,25.53
2022-08-03T21:28:50.257Z,25.48
2022-08-03T21:31:24.206Z,25.46
2022-08-03T21:33:52.065Z,25.39
2022-08-03T21:36:18.321Z,25.36
2022-08-03T21:38:44.541Z,25.32
2022-08-03T21:41:22.015Z,25.30
2022-08-03T21:43:48.243Z,25.28
2022-08-03T21:46:14.501Z,25.21
2022-08-03T21:48:40.727Z,25.16
2022-08-03T21:51:07.064Z,25.13
2022-08-03T21:54:02.962Z,25.08
2022-08-03T21:56:19.555Z,25.06
2022-08-03T21:58:45.919Z,25.02
2022-08-03T22:01:17.420Z,24.98
2022-08-03T22:03:53.185Z,24.93
2022-08-03T22:06:20.651Z,24.89
2022-08-03T22:08:48.726Z,24.85
2022-08-03T22:11:14.989Z,24.81
2022-08-03T22:13:42.989Z,24.77
2022-08-03T22:16:10.776Z,24.70
2022-08-03T22:18:37.015Z,24.66
2022-08-03T22:21:03.288Z,24.61
2022-08-03T22:23:29.883Z,24.57
2022-08-03T22:25:56.125Z,24.50
2022-08-03T22:28:22.342Z,24.44
2022-08-03T22:30:48.793Z,24.39
2022-08-03T22:33:15.015Z,24.36
2022-08-03T22:35:47.416Z,24.34
2022-08-03T22:38:14.332Z,24.31
2022-08-03T22:40:40.564Z,24.24
2022-08-03T22:43:06.789Z,24.18
2022-08-03T22:46:06.424Z,24.13
2022-08-03T22:48:19.229Z,24.07
2022-08-03T22:50:45.475Z,24.03
2022-08-03T22:53:11.762Z,24.02
2022-08-03T22:55:38.021Z,23.99
2022-08-03T22:58:04.254Z,23.96
2022-08-03T23:00:30.537Z,23.92
2022-08-03T23:02:56.808Z,23.90
2022-08-03T23:06:02.460Z,23.87
2022-08-03T23:08:09.324Z,23.85
2022-08-03T23:10:35.552Z,23.83
2022-08-03T23:13:01.765Z,23.78
2022-08-03T23:15:28.011Z,23.74
2022-08-03T23:17:58.166Z,23.71
2022-08-03T23:20:26.609Z,23.67
2022-08-03T23:22:53.159Z,23.62
2022-08-03T23:25:19.894Z,23.58
2022-08-03T23:27:46.111Z,23.53
2022-08-03T23:30:12.340Z,23.48
2022-08-03T23:32:38.557Z,23.44
2022-08-03T23:35:04.800Z,23.40
2022-08-03T23:37:31.045Z,23.38
2022-08-03T23:39:57.305Z,23.35
2022-08-03T23:42:23.546Z,23.31
2022-08-03T23:44:49.795Z,23.28
2022-08-03T23:47:15.999Z,23.27
2022-08-03T23:49:42.245Z,23.24
2022-08-03T23:52:08.463Z,23.23
2022-08-03T23:54:34.700Z,23.21
2022-08-03T23:57:00.919Z,23.17
2022-08-03T23:59:27.173Z,23.11
